Data Viewer
| City | State | Eastern Time | Source | Daily Temp Max | Daily Temp Min | Daily Dew Point Max | Daily Dew Point Min | Daily RH Max | Daily Min RH | Daily BP Max | Daily BP Min | Daily Precip | Daily Wind Max | Daily Wind Max Dir |
|---|---|---|---|---|---|---|---|---|---|---|---|---|---|---|
| Walpack | NJ | 2026-04-03 | Mesonet | 65 | 40 | 53 | 37 | 96 | 63 | 30.39 | 30.09 | 0.04 | 21 | SSW |
| Walpack | NJ | 2026-04-19 | Mesonet | 53 | 31 | 50 | 30 | 96 | 51 | 30.09 | 29.74 | 0.58 | 19 | NNE |
| Walpack | NJ | 2026-05-02 | Mesonet | 60 | 43 | 46 | 26 | 97 | 31 | 29.92 | 29.83 | 0.13 | 17 | NE |
| Walpack | NJ | 2026-05-01 | Mesonet | 65 | 30 | 46 | 29 | 97 | 32 | 29.93 | 29.81 | 0.01 | 15 | N |
| Walpack | NJ | 2026-04-30 | Mesonet | 59 | 47 | 51 | 36 | 96 | 50 | 29.86 | 29.73 | 0.03 | 13 | NNW |
| Walpack | NJ | 2026-04-29 | Mesonet | 65 | 47 | 48 | 40 | 93 | 45 | 30.05 | 29.78 | 0.38 | 14 | SW |
| Walpack | NJ | 2026-04-28 | Mesonet | 65 | 32 | 44 | 31 | 97 | 35 | 30.23 | 30.02 | 0.00 | 16 | SSE |
| Walpack | NJ | 2026-04-27 | Mesonet | 74 | 31 | 47 | 30 | 98 | 30 | 30.26 | 30.17 | 0.00 | 13 | S |
| Walpack | NJ | 2026-04-26 | Mesonet | 64 | 40 | 45 | 36 | 96 | 36 | 30.18 | 30.03 | 0.03 | 17 | NE |
| Walpack | NJ | 2026-04-25 | Mesonet | 54 | 40 | 43 | 35 | 95 | 55 | 30.06 | 29.90 | 1.09 | 14 | SW |
| Walpack | NJ | 2026-04-24 | Mesonet | 73 | 41 | 43 | 24 | 92 | 19 | 29.91 | 29.76 | 0.00 | 17 | NNE |
| Walpack | NJ | 2026-04-23 | Mesonet | 75 | 35 | 50 | 32 | 98 | 24 | 30.00 | 29.85 | 0.00 | 19 | N |
| Walpack | NJ | 2026-04-22 | Mesonet | 57 | 41 | 46 | 29 | 94 | 55 | 30.19 | 29.94 | 0.05 | 10 | S |
| Walpack | NJ | 2026-04-21 | Mesonet | 55 | 19 | 30 | 8 | 95 | 21 | 30.41 | 30.16 | 0.00 | 16 | SSW |
| Walpack | NJ | 2026-04-20 | Mesonet | 47 | 27 | 38 | 18 | 98 | 34 | 30.32 | 30.07 | 0.00 | 26 | N |
| Walpack | NJ | 2026-04-18 | Mesonet | 76 | 49 | 57 | 47 | 99 | 41 | 30.07 | 29.89 | 0.01 | 19 | S |
| Walpack | NJ | 2026-04-04 | Mesonet | 72 | 46 | 55 | 40 | 98 | 49 | 30.21 | 30.09 | 0.01 | 23 | ESE |
| Walpack | NJ | 2026-04-17 | Mesonet | 79 | 55 | 62 | 53 | 97 | 42 | 30.00 | 29.75 | 0.03 | 16 | NNE |
| Walpack | NJ | 2026-04-16 | Mesonet | 90 | 57 | 66 | 56 | 98 | 32 | 29.96 | 29.72 | 0.14 | 26 | SSW |
| Walpack | NJ | 2026-04-15 | Mesonet | 88 | 53 | 65 | 52 | 99 | 38 | 29.96 | 29.84 | 0.01 | 17 | S |
| Walpack | NJ | 2026-04-14 | Mesonet | 87 | 49 | 62 | 48 | 98 | 37 | 30.02 | 29.82 | 0.09 | 24 | S |
| Walpack | NJ | 2026-04-13 | Mesonet | 80 | 44 | 58 | 36 | 93 | 45 | 30.26 | 29.89 | 0.00 | 28 | SSW |
| Walpack | NJ | 2026-04-12 | Mesonet | 64 | 25 | 39 | 23 | 94 | 33 | 30.51 | 30.25 | 0.00 | 21 | S |
| Walpack | NJ | 2026-04-11 | Mesonet | 60 | 34 | 53 | 27 | 97 | 30 | 30.39 | 30.06 | 0.06 | 21 | NNE |
| Walpack | NJ | 2026-04-10 | Mesonet | 72 | 29 | 51 | 27 | 95 | 37 | 30.42 | 30.07 | 0.00 | 21 | SSE |
| Walpack | NJ | 2026-04-09 | Mesonet | 61 | 20 | 36 | 16 | 89 | 28 | 30.57 | 30.37 | 0.00 | 18 | SSW |
| Walpack | NJ | 2026-04-08 | Mesonet | 54 | 15 | 23 | 11 | 92 | 18 | 30.61 | 30.48 | 0.00 | 13 | ENE |
| Walpack | NJ | 2026-04-07 | Mesonet | 50 | 27 | 36 | 13 | 95 | 30 | 30.49 | 30.03 | 0.00 | 26 | SSW |
| Walpack | NJ | 2026-04-06 | Mesonet | 53 | 32 | 34 | 23 | 86 | 33 | 30.07 | 29.91 | 0.00 | 24 | NE |
| Walpack | NJ | 2026-04-05 | Mesonet | 58 | 41 | 54 | 31 | 96 | 59 | 30.12 | 29.74 | 0.18 | 16 | ENE |
| Walpack | NJ | 2026-05-03 | Mesonet | 57 | 40 | 34 | 24 | 71 | 30 | 29.92 | 29.85 | 0.00 | 21 | NE |
data collection created in 0.01175594329834 (queried in 0.003614) rendered in: 8.2969665527344E-5

